sensor_id;sensor_type;location;lat;lon;timestamp;pressure;altitude;pressure_sealevel;temperature;humidity
51297;BME280;37380;45.186;9.792;2023-02-13T00:02:10;103070.25;;;1.49;100.00
51297;BME280;37380;45.186;9.792;2023-02-13T00:05:04;103128.94;;;1.68;100.00
51297;BME280;37380;45.186;9.792;2023-02-13T00:07:31;103109.22;;;1.52;100.00
51297;BME280;37380;45.186;9.792;2023-02-13T00:09:58;103066.44;;;1.07;100.00
51297;BME280;37380;45.186;9.792;2023-02-13T00:12:26;103144.81;;;1.79;100.00
51297;BME280;37380;45.186;9.792;2023-02-13T00:14:53;103204.78;;;2.17;100.00
51297;BME280;37380;45.186;9.792;2023-02-13T00:17:20;103190.00;;;2.08;100.00
51297;BME280;37380;45.186;9.792;2023-02-13T00:19:54;103089.63;;;1.62;100.00
51297;BME280;37380;45.186;9.792;2023-02-13T00:22:48;103188.06;;;2.30;100.00
51297;BME280;37380;45.186;9.792;2023-02-13T00:25:15;103203.28;;;2.35;100.00
51297;BME280;37380;45.186;9.792;2023-02-13T00:27:42;103215.09;;;2.49;100.00
51297;BME280;37380;45.186;9.792;2023-02-13T00:30:10;103082.81;;;1.78;100.00
51297;BME280;37380;45.186;9.792;2023-02-13T00:32:37;103205.00;;;2.59;100.00
51297;BME280;37380;45.186;9.792;2023-02-13T00:35:04;103191.91;;;2.33;100.00
51297;BME280;37380;45.186;9.792;2023-02-13T00:37:32;103210.13;;;2.19;100.00
51297;BME280;37380;45.186;9.792;2023-02-13T00:39:59;103096.75;;;1.32;100.00
51297;BME280;37380;45.186;9.792;2023-02-13T00:42:26;103133.00;;;1.50;100.00
51297;BME280;37380;45.186;9.792;2023-02-13T00:44:54;103135.06;;;1.45;100.00
51297;BME280;37380;45.186;9.792;2023-02-13T00:47:22;103177.19;;;1.69;100.00
51297;BME280;37380;45.186;9.792;2023-02-13T00:49:55;103079.56;;;1.01;100.00
51297;BME280;37380;45.186;9.792;2023-02-13T00:52:56;103217.84;;;1.87;100.00
51297;BME280;37380;45.186;9.792;2023-02-13T00:56:16;103228.34;;;1.66;100.00
51297;BME280;37380;45.186;9.792;2023-02-13T01:00:20;103104.69;;;0.88;100.00
51297;BME280;37380;45.186;9.792;2023-02-13T01:02:47;102927.34;;;-0.26;100.00
51297;BME280;37380;45.186;9.792;2023-02-13T01:05:17;102881.56;;;-0.37;100.00
51297;BME280;37380;45.186;9.792;2023-02-13T01:07:59;103091.72;;;0.49;100.00
51297;BME280;37380;45.186;9.792;2023-02-13T01:10:35;103062.84;;;0.29;100.00
51297;BME280;37380;45.186;9.792;2023-02-13T01:13:23;103046.59;;;0.44;100.00
51297;BME280;37380;45.186;9.792;2023-02-13T01:16:10;102907.34;;;-0.58;100.00
51297;BME280;37380;45.186;9.792;2023-02-13T01:18:58;103140.63;;;0.72;100.00
51297;BME280;37380;45.186;9.792;2023-02-13T01:22:12;102953.88;;;-0.18;100.00
51297;BME280;37380;45.186;9.792;2023-02-13T01:25:42;102908.72;;;-0.76;100.00
51297;BME280;37380;45.186;9.792;2023-02-13T01:28:25;102944.09;;;-0.74;100.00
51297;BME280;37380;45.186;9.792;2023-02-13T01:31:16;103110.91;;;0.37;100.00
51297;BME280;37380;45.186;9.792;2023-02-13T01:33:54;103143.84;;;0.62;100.00
51297;BME280;37380;45.186;9.792;2023-02-13T01:36:26;102927.31;;;-0.49;100.00
51297;BME280;37380;45.186;9.792;2023-02-13T01:39:10;102986.16;;;-0.13;100.00
51297;BME280;37380;45.186;9.792;2023-02-13T01:42:03;102948.47;;;-0.65;100.00
51297;BME280;37380;45.186;9.792;2023-02-13T01:45:34;103087.22;;;0.09;100.00
51297;BME280;37380;45.186;9.792;2023-02-13T01:48:25;102922.84;;;-0.80;100.00
51297;BME280;37380;45.186;9.792;2023-02-13T01:51:17;103111.69;;;0.29;100.00
51297;BME280;37380;45.186;9.792;2023-02-13T01:55:00;103042.88;;;-0.11;100.00
51297;BME280;37380;45.186;9.792;2023-02-13T01:58:45;103252.19;;;0.80;100.00
51297;BME280;37380;45.186;9.792;2023-02-13T02:02:20;102901.19;;;-1.19;100.00
51297;BME280;37380;45.186;9.792;2023-02-13T02:05:22;103150.03;;;0.04;100.00
51297;BME280;37380;45.186;9.792;2023-02-13T02:08:02;102931.59;;;-1.15;100.00
51297;BME280;37380;45.186;9.792;2023-02-13T02:11:04;103046.03;;;-0.14;100.00
51297;BME280;37380;45.186;9.792;2023-02-13T02:13:49;103073.69;;;-0.04;100.00
51297;BME280;37380;45.186;9.792;2023-02-13T02:16:34;102993.44;;;-0.32;100.00
51297;BME280;37380;45.186;9.792;2023-02-13T02:22:52;102914.50;;;-0.93;100.00
51297;BME280;37380;45.186;9.792;2023-02-13T02:36:05;103246.78;;;1.16;100.00
51297;BME280;37380;45.186;9.792;2023-02-13T02:39:09;102910.78;;;-0.81;100.00
51297;BME280;37380;45.186;9.792;2023-02-13T02:45:34;102896.66;;;-1.43;100.00
51297;BME280;37380;45.186;9.792;2023-02-13T02:49:13;103246.28;;;0.81;100.00
51297;BME280;37380;45.186;9.792;2023-02-13T02:52:50;102931.94;;;-1.12;100.00
51297;BME280;37380;45.186;9.792;2023-02-13T02:56:42;103241.25;;;0.52;100.00
51297;BME280;37380;45.186;9.792;2023-02-13T03:00:00;102938.75;;;-1.34;100.00
51297;BME280;37380;45.186;9.792;2023-02-13T03:03:22;103136.22;;;-0.48;100.00
51297;BME280;37380;45.186;9.792;2023-02-13T03:07:18;103270.16;;;0.42;100.00
51297;BME280;37380;45.186;9.792;2023-02-13T03:10:04;103276.25;;;0.29;100.00
51297;BME280;37380;45.186;9.792;2023-02-13T03:13:41;103276.66;;;0.25;100.00
51297;BME280;37380;45.186;9.792;2023-02-13T03:32:02;102938.44;;;-1.80;100.00
51297;BME280;37380;45.186;9.792;2023-02-13T03:34:53;102954.00;;;-1.78;100.00
51297;BME280;37380;45.186;9.792;2023-02-13T03:38:02;102977.97;;;-1.64;100.00
51297;BME280;37380;45.186;9.792;2023-02-13T03:41:35;103294.34;;;-0.07;100.00
51297;BME280;37380;45.186;9.792;2023-02-13T03:47:04;102934.41;;;-1.99;100.00
51297;BME280;37380;45.186;9.792;2023-02-13T03:49:46;102893.06;;;-2.02;100.00
51297;BME280;37380;45.186;9.792;2023-02-13T03:53:22;102914.63;;;-1.93;100.00
51297;BME280;37380;45.186;9.792;2023-02-13T03:56:53;102931.63;;;-2.15;100.00
51297;BME280;37380;45.186;9.792;2023-02-13T04:00:49;103267.91;;;-0.20;100.00
51297;BME280;37380;45.186;9.792;2023-02-13T04:10:49;102978.34;;;-1.75;100.00
51297;BME280;37380;45.186;9.792;2023-02-13T04:13:40;102957.81;;;-1.89;100.00
51297;BME280;37380;45.186;9.792;2023-02-13T04:16:40;102932.91;;;-2.26;100.00
51297;BME280;37380;45.186;9.792;2023-02-13T04:19:39;102997.66;;;-2.13;100.00
51297;BME280;37380;45.186;9.792;2023-02-13T04:22:20;102953.19;;;-2.35;100.00
51297;BME280;37380;45.186;9.792;2023-02-13T04:25:07;102906.66;;;-2.66;100.00
51297;BME280;37380;45.186;9.792;2023-02-13T04:27:50;103142.09;;;-1.14;100.00
51297;BME280;37380;45.186;9.792;2023-02-13T04:30:41;103145.78;;;-1.11;100.00
51297;BME280;37380;45.186;9.792;2023-02-13T04:36:54;103264.44;;;-0.35;100.00
51297;BME280;37380;45.186;9.792;2023-02-13T04:39:41;102866.19;;;-2.83;100.00
51297;BME280;37380;45.186;9.792;2023-02-13T04:42:41;103120.47;;;-1.37;100.00
51297;BME280;37380;45.186;9.792;2023-02-13T04:46:03;102920.06;;;-2.33;100.00
51297;BME280;37380;45.186;9.792;2023-02-13T04:48:49;102911.69;;;-2.25;100.00
51297;BME280;37380;45.186;9.792;2023-02-13T04:51:44;102917.38;;;-1.99;100.00
51297;BME280;37380;45.186;9.792;2023-02-13T04:54:49;103264.59;;;-0.27;100.00
51297;BME280;37380;45.186;9.792;2023-02-13T05:01:26;103268.50;;;-0.23;100.00
51297;BME280;37380;45.186;9.792;2023-02-13T05:04:22;103116.47;;;-1.28;100.00
51297;BME280;37380;45.186;9.792;2023-02-13T05:07:28;103143.94;;;-1.20;100.00
51297;BME280;37380;45.186;9.792;2023-02-13T05:10:12;103135.50;;;-1.33;100.00
51297;BME280;37380;45.186;9.792;2023-02-13T05:12:43;102891.09;;;-2.75;100.00
51297;BME280;37380;45.186;9.792;2023-02-13T05:15:15;103138.78;;;-1.48;100.00
51297;BME280;37380;45.186;9.792;2023-02-13T05:18:00;102921.84;;;-2.61;100.00
51297;BME280;37380;45.186;9.792;2023-02-13T05:20:42;102931.69;;;-2.64;100.00
51297;BME280;37380;45.186;9.792;2023-02-13T05:23:15;103114.03;;;-1.62;100.00
51297;BME280;37380;45.186;9.792;2023-02-13T05:26:13;102887.50;;;-2.97;100.00
51297;BME280;37380;45.186;9.792;2023-02-13T05:30:06;103178.16;;;-1.41;100.00
51297;BME280;37380;45.186;9.792;2023-02-13T05:33:33;102922.00;;;-2.66;100.00
51297;BME280;37380;45.186;9.792;2023-02-13T05:36:24;103050.84;;;-1.83;100.00
51297;BME280;37380;45.186;9.792;2023-02-13T05:38:51;103110.41;;;-1.35;100.00
51297;BME280;37380;45.186;9.792;2023-02-13T05:41:18;103254.34;;;-0.41;100.00
51297;BME280;37380;45.186;9.792;2023-02-13T05:43:45;103103.66;;;-1.28;100.00
51297;BME280;37380;45.186;9.792;2023-02-13T05:46:12;103059.81;;;-1.58;100.00
51297;BME280;37380;45.186;9.792;2023-02-13T05:48:39;103256.56;;;-0.37;100.00
51297;BME280;37380;45.186;9.792;2023-02-13T05:51:12;103261.31;;;-0.26;100.00
51297;BME280;37380;45.186;9.792;2023-02-13T05:54:14;103252.50;;;-0.28;100.00
51297;BME280;37380;45.186;9.792;2023-02-13T05:57:14;103268.09;;;-0.33;100.00
51297;BME280;37380;45.186;9.792;2023-02-13T06:00:15;103256.94;;;-0.48;100.00
51297;BME280;37380;45.186;9.792;2023-02-13T06:03:05;103180.59;;;-1.28;100.00
51297;BME280;37380;45.186;9.792;2023-02-13T06:05:35;103308.66;;;-0.45;100.00
51297;BME280;37380;45.186;9.792;2023-02-13T06:08:02;103076.25;;;-1.92;100.00
51297;BME280;37380;45.186;9.792;2023-02-13T06:10:30;102972.88;;;-2.55;100.00
51297;BME280;37380;45.186;9.792;2023-02-13T06:13:03;103288.63;;;-0.83;100.00
51297;BME280;37380;45.186;9.792;2023-02-13T06:16:05;103242.03;;;-0.94;100.00
51297;BME280;37380;45.186;9.792;2023-02-13T06:18:59;103140.56;;;-1.54;100.00
51297;BME280;37380;45.186;9.792;2023-02-13T06:21:26;103141.69;;;-1.52;100.00
51297;BME280;37380;45.186;9.792;2023-02-13T06:23:53;103223.13;;;-1.16;100.00
51297;BME280;37380;45.186;9.792;2023-02-13T06:26:27;103228.28;;;-1.01;100.00
51297;BME280;37380;45.186;9.792;2023-02-13T06:29:28;103268.25;;;-0.89;100.00
51297;BME280;37380;45.186;9.792;2023-02-13T06:32:29;103194.88;;;-1.30;100.00
51297;BME280;37380;45.186;9.792;2023-02-13T06:34:59;103122.97;;;-1.80;100.00
51297;BME280;37380;45.186;9.792;2023-02-13T06:37:31;103268.59;;;-1.07;100.00
51297;BME280;37380;45.186;9.792;2023-02-13T06:40:06;103276.50;;;-0.99;100.00
51297;BME280;37380;45.186;9.792;2023-02-13T06:42:33;103152.31;;;-1.56;100.00
51297;BME280;37380;45.186;9.792;2023-02-13T06:45:09;103363.34;;;-0.46;100.00
51297;BME280;37380;45.186;9.792;2023-02-13T06:47:56;103124.13;;;-1.56;100.00
51297;BME280;37380;45.186;9.792;2023-02-13T06:50:24;103312.31;;;-0.57;100.00
51297;BME280;37380;45.186;9.792;2023-02-13T06:52:57;103252.81;;;-0.96;100.00
51297;BME280;37380;45.186;9.792;2023-02-13T06:56:02;103300.97;;;-0.52;100.00
51297;BME280;37380;45.186;9.792;2023-02-13T06:58:57;103152.56;;;-1.05;100.00
51297;BME280;37380;45.186;9.792;2023-02-13T07:01:24;103311.75;;;-0.12;100.00
51297;BME280;37380;45.186;9.792;2023-02-13T07:03:52;103339.84;;;0.01;100.00
51297;BME280;37380;45.186;9.792;2023-02-13T07:06:21;103013.13;;;-1.55;100.00
51297;BME280;37380;45.186;9.792;2023-02-13T07:08:49;103011.69;;;-1.68;100.00
51297;BME280;37380;45.186;9.792;2023-02-13T07:11:23;102991.69;;;-1.34;100.00
51297;BME280;37380;45.186;9.792;2023-02-13T07:13:51;103163.69;;;-0.33;100.00
51297;BME280;37380;45.186;9.792;2023-02-13T07:16:24;103295.94;;;0.80;100.00
51297;BME280;37380;45.186;9.792;2023-02-13T07:19:25;103328.63;;;1.18;100.00
51297;BME280;37380;45.186;9.792;2023-02-13T07:22:26;103316.94;;;1.36;100.00
51297;BME280;37380;45.186;9.792;2023-02-13T07:25:27;103310.09;;;1.13;100.00
51297;BME280;37380;45.186;9.792;2023-02-13T07:28:21;103305.56;;;1.34;100.00
51297;BME280;37380;45.186;9.792;2023-02-13T07:30:51;103003.31;;;-0.28;100.00
51297;BME280;37380;45.186;9.792;2023-02-13T07:33:23;103341.50;;;1.71;100.00
51297;BME280;37380;45.186;9.792;2023-02-13T07:35:51;103140.56;;;0.56;100.00
51297;BME280;37380;45.186;9.792;2023-02-13T07:38:19;103339.84;;;1.95;100.00
51297;BME280;37380;45.186;9.792;2023-02-13T07:40:46;103307.16;;;1.87;100.00
51297;BME280;37380;45.186;9.792;2023-02-13T07:43:13;103346.28;;;2.37;100.00
51297;BME280;37380;45.186;9.792;2023-02-13T07:45:40;103058.53;;;0.89;100.00
51297;BME280;37380;45.186;9.792;2023-02-13T07:48:07;103246.50;;;2.13;100.00
51297;BME280;37380;45.186;9.792;2023-02-13T07:50:34;103349.19;;;2.88;100.00
51297;BME280;37380;45.186;9.792;2023-02-13T07:53:01;103317.97;;;2.46;100.00
51297;BME280;37380;45.186;9.792;2023-02-13T07:55:35;103327.22;;;2.28;100.00
51297;BME280;37380;45.186;9.792;2023-02-13T07:58:29;103353.31;;;2.15;100.00
51297;BME280;37380;45.186;9.792;2023-02-13T08:00:56;103328.69;;;2.10;100.00
51297;BME280;37380;45.186;9.792;2023-02-13T08:03:23;103299.78;;;2.06;100.00
51297;BME280;37380;45.186;9.792;2023-02-13T08:05:50;103361.19;;;2.40;100.00
51297;BME280;37380;45.186;9.792;2023-02-13T08:08:17;103231.75;;;1.96;100.00
51297;BME280;37380;45.186;9.792;2023-02-13T08:10:44;103260.69;;;1.94;100.00
51297;BME280;37380;45.186;9.792;2023-02-13T08:13:36;103337.09;;;2.32;100.00
51297;BME280;37380;45.186;9.792;2023-02-13T08:16:37;103346.13;;;2.52;100.00
51297;BME280;37380;45.186;9.792;2023-02-13T08:19:38;103340.97;;;2.83;100.00
51297;BME280;37380;45.186;9.792;2023-02-13T08:22:39;103299.66;;;2.83;100.00
51297;BME280;37380;45.186;9.792;2023-02-13T08:25:12;103354.94;;;3.01;100.00
51297;BME280;37380;45.186;9.792;2023-02-13T08:27:46;103325.28;;;2.98;100.00
51297;BME280;37380;45.186;9.792;2023-02-13T08:30:32;103277.50;;;2.85;100.00
51297;BME280;37380;45.186;9.792;2023-02-13T08:33:00;103041.97;;;1.42;100.00
51297;BME280;37380;45.186;9.792;2023-02-13T08:35:27;103333.91;;;3.14;100.00
51297;BME280;37380;45.186;9.792;2023-02-13T08:38:04;103311.09;;;3.10;100.00
51297;BME280;37380;45.186;9.792;2023-02-13T08:40:57;103286.94;;;2.93;100.00
51297;BME280;37380;45.186;9.792;2023-02-13T08:43:31;103044.88;;;1.93;100.00
51297;BME280;37380;45.186;9.792;2023-02-13T08:46:32;103337.69;;;3.82;100.00
51297;BME280;37380;45.186;9.792;2023-02-13T08:48:59;103214.81;;;3.53;100.00
51297;BME280;37380;45.186;9.792;2023-02-13T08:51:26;103140.69;;;2.69;100.00
51297;BME280;37380;45.186;9.792;2023-02-13T08:53:53;103325.72;;;4.00;100.00
51297;BME280;37380;45.186;9.792;2023-02-13T08:56:27;103216.94;;;3.57;100.00
51297;BME280;37380;45.186;9.792;2023-02-13T08:59:21;103183.75;;;4.12;100.00
51297;BME280;37380;45.186;9.792;2023-02-13T09:01:48;103348.66;;;4.39;100.00
51297;BME280;37380;45.186;9.792;2023-02-13T09:04:16;103326.53;;;4.08;100.00
51297;BME280;37380;45.186;9.792;2023-02-13T09:06:44;103354.31;;;4.44;100.00
51297;BME280;37380;45.186;9.792;2023-02-13T09:09:11;103226.00;;;3.86;100.00
51297;BME280;37380;45.186;9.792;2023-02-13T09:11:38;103211.84;;;3.74;100.00
51297;BME280;37380;45.186;9.792;2023-02-13T09:14:11;103188.31;;;4.06;100.00
51297;BME280;37380;45.186;9.792;2023-02-13T09:17:05;103312.63;;;5.02;100.00
51297;BME280;37380;45.186;9.792;2023-02-13T09:19:32;103140.06;;;3.80;100.00
51297;BME280;37380;45.186;9.792;2023-02-13T09:22:00;103364.28;;;5.00;100.00
51297;BME280;37380;45.186;9.792;2023-02-13T09:24:27;103346.47;;;5.03;100.00
51297;BME280;37380;45.186;9.792;2023-02-13T09:26:54;103179.06;;;4.34;100.00
51297;BME280;37380;45.186;9.792;2023-02-13T09:29:24;103205.53;;;4.84;100.00
51297;BME280;37380;45.186;9.792;2023-02-13T09:31:56;103319.00;;;5.94;100.00
51297;BME280;37380;45.186;9.792;2023-02-13T09:34:23;103340.72;;;5.77;100.00
51297;BME280;37380;45.186;9.792;2023-02-13T09:36:56;103322.91;;;5.54;100.00
51297;BME280;37380;45.186;9.792;2023-02-13T09:39:57;103184.84;;;4.49;100.00
51297;BME280;37380;45.186;9.792;2023-02-13T09:46:19;103345.34;;;6.07;100.00
51297;BME280;37380;45.186;9.792;2023-02-13T09:49:19;103330.47;;;5.78;100.00
51297;BME280;37380;45.186;9.792;2023-02-13T09:51:53;103200.41;;;5.20;100.00
51297;BME280;37380;45.186;9.792;2023-02-13T09:54:22;103282.84;;;5.78;100.00
51297;BME280;37380;45.186;9.792;2023-02-13T09:57:27;103219.72;;;6.24;100.00
51297;BME280;37380;45.186;9.792;2023-02-13T10:00:36;103277.28;;;6.28;100.00
51297;BME280;37380;45.186;9.792;2023-02-13T10:05:51;103228.53;;;5.79;100.00
51297;BME280;37380;45.186;9.792;2023-02-13T10:08:51;103344.81;;;6.47;100.00
51297;BME280;37380;45.186;9.792;2023-02-13T10:18:44;103177.75;;;6.00;100.00
51297;BME280;37380;45.186;9.792;2023-02-13T10:21:38;103219.78;;;6.72;100.00
51297;BME280;37380;45.186;9.792;2023-02-13T10:26:47;103363.22;;;7.54;100.00
51297;BME280;37380;45.186;9.792;2023-02-13T10:32:29;103289.63;;;7.36;100.00
51297;BME280;37380;45.186;9.792;2023-02-13T10:35:03;103030.25;;;5.86;100.00
51297;BME280;37380;45.186;9.792;2023-02-13T10:37:58;103009.13;;;6.10;100.00
51297;BME280;37380;45.186;9.792;2023-02-13T10:41:03;103315.19;;;8.00;100.00
51297;BME280;37380;45.186;9.792;2023-02-13T10:47:29;103314.41;;;7.90;100.00
51297;BME280;37380;45.186;9.792;2023-02-13T10:59:07;103289.22;;;8.81;96.10
51297;BME280;37380;45.186;9.792;2023-02-13T11:04:17;103002.78;;;7.26;98.26
51297;BME280;37380;45.186;9.792;2023-02-13T11:07:20;103048.41;;;7.23;100.00
51297;BME280;37380;45.186;9.792;2023-02-13T11:10:21;103222.66;;;8.97;97.44
51297;BME280;37380;45.186;9.792;2023-02-13T11:12:48;103276.78;;;8.99;99.46
51297;BME280;37380;45.186;9.792;2023-02-13T11:15:21;103272.78;;;8.72;98.99
51297;BME280;37380;45.186;9.792;2023-02-13T11:17:49;103256.91;;;8.49;98.36
51297;BME280;37380;45.186;9.792;2023-02-13T11:20:39;103094.47;;;7.55;97.49
51297;BME280;37380;45.186;9.792;2023-02-13T11:28:34;103100.16;;;8.87;91.17
51297;BME280;37380;45.186;9.792;2023-02-13T11:33:36;103157.41;;;9.07;92.90
51297;BME280;37380;45.186;9.792;2023-02-13T11:36:06;103075.25;;;8.90;90.99
51297;BME280;37380;45.186;9.792;2023-02-13T11:38:39;103092.66;;;8.79;91.24
51297;BME280;37380;45.186;9.792;2023-02-13T11:41:42;103251.34;;;9.29;93.67
51297;BME280;37380;45.186;9.792;2023-02-13T11:44:40;103090.06;;;8.47;92.50
51297;BME280;37380;45.186;9.792;2023-02-13T11:47:08;103174.72;;;9.17;93.18
51297;BME280;37380;45.186;9.792;2023-02-13T11:49:36;103250.34;;;9.49;92.54
51297;BME280;37380;45.186;9.792;2023-02-13T11:52:31;103074.00;;;9.41;91.87
51297;BME280;37380;45.186;9.792;2023-02-13T11:55:03;103218.31;;;9.95;90.13
51297;BME280;37380;45.186;9.792;2023-02-13T11:58:00;103208.78;;;9.74;91.35
51297;BME280;37380;45.186;9.792;2023-02-13T12:00:43;102953.25;;;8.86;94.60
51297;BME280;37380;45.186;9.792;2023-02-13T12:06:14;103209.03;;;9.77;88.84
51297;BME280;37380;45.186;9.792;2023-02-13T12:08:45;103136.63;;;9.41;88.63
51297;BME280;37380;45.186;9.792;2023-02-13T12:13:40;102963.72;;;8.32;90.78
51297;BME280;37380;45.186;9.792;2023-02-13T12:19:09;103200.16;;;10.54;85.25
51297;BME280;37380;45.186;9.792;2023-02-13T12:27:30;102892.41;;;8.86;84.30
51297;BME280;37380;45.186;9.792;2023-02-13T12:30:04;103186.88;;;10.75;82.89
51297;BME280;37380;45.186;9.792;2023-02-13T12:38:36;103173.53;;;10.95;82.44
51297;BME280;37380;45.186;9.792;2023-02-13T12:42:12;103160.03;;;10.89;84.94
51297;BME280;37380;45.186;9.792;2023-02-13T12:45:40;103119.88;;;10.06;85.45
51297;BME280;37380;45.186;9.792;2023-02-13T12:52:02;103157.69;;;10.11;87.77
51297;BME280;37380;45.186;9.792;2023-02-13T12:57:31;103085.66;;;9.80;87.26
51297;BME280;37380;45.186;9.792;2023-02-13T13:09:51;103124.75;;;10.96;85.41
51297;BME280;37380;45.186;9.792;2023-02-13T13:26:17;103125.31;;;11.03;87.07
51297;BME280;37380;45.186;9.792;2023-02-13T13:28:55;103024.94;;;10.41;86.51
51297;BME280;37380;45.186;9.792;2023-02-13T13:31:25;103118.47;;;11.05;90.29
51297;BME280;37380;45.186;9.792;2023-02-13T13:34:01;102916.38;;;9.86;88.37
51297;BME280;37380;45.186;9.792;2023-02-13T13:39:13;103009.94;;;10.27;88.81
51297;BME280;37380;45.186;9.792;2023-02-13T13:50:47;103057.88;;;10.62;86.35
51297;BME280;37380;45.186;9.792;2023-02-13T13:53:21;103027.44;;;10.39;87.10
51297;BME280;37380;45.186;9.792;2023-02-13T13:56:22;102825.53;;;9.45;83.42
51297;BME280;37380;45.186;9.792;2023-02-13T14:07:37;103087.84;;;10.79;86.33
51297;BME280;37380;45.186;9.792;2023-02-13T14:20:37;102904.81;;;9.82;84.35
51297;BME280;37380;45.186;9.792;2023-02-13T14:23:43;102994.97;;;10.36;86.12
51297;BME280;37380;45.186;9.792;2023-02-13T14:26:36;102871.03;;;9.60;87.70
51297;BME280;37380;45.186;9.792;2023-02-13T14:29:26;102765.09;;;8.68;88.55
51297;BME280;37380;45.186;9.792;2023-02-13T14:34:56;102801.59;;;8.80;87.51
51297;BME280;37380;45.186;9.792;2023-02-13T14:37:37;102746.63;;;8.53;88.31
51297;BME280;37380;45.186;9.792;2023-02-13T14:42:38;102900.97;;;9.30;89.38
51297;BME280;37380;45.186;9.792;2023-02-13T14:45:32;102980.66;;;9.60;89.83
51297;BME280;37380;45.186;9.792;2023-02-13T14:49:09;103102.88;;;10.35;89.41
51297;BME280;37380;45.186;9.792;2023-02-13T14:52:33;102740.28;;;8.28;89.82
51297;BME280;37380;45.186;9.792;2023-02-13T14:55:18;102757.06;;;8.31;91.33
51297;BME280;37380;45.186;9.792;2023-02-13T14:58:35;102784.09;;;8.44;90.61
51297;BME280;37380;45.186;9.792;2023-02-13T15:01:29;102848.91;;;8.96;91.96
51297;BME280;37380;45.186;9.792;2023-02-13T15:04:09;102773.34;;;8.29;90.60
51297;BME280;37380;45.186;9.792;2023-02-13T15:10:58;102857.97;;;9.13;89.20
51297;BME280;37380;45.186;9.792;2023-02-13T15:14:33;102751.81;;;8.42;89.61
51297;BME280;37380;45.186;9.792;2023-02-13T15:59:09;102651.59;;;6.81;100.00
51297;BME280;37380;45.186;9.792;2023-02-13T16:01:46;102831.84;;;7.88;100.00
51297;BME280;37380;45.186;9.792;2023-02-13T16:04:45;102852.66;;;7.88;100.00
51297;BME280;37380;45.186;9.792;2023-02-13T16:07:20;102890.31;;;8.26;100.00
51297;BME280;37380;45.186;9.792;2023-02-13T16:10:16;102921.63;;;8.15;100.00
51297;BME280;37380;45.186;9.792;2023-02-13T16:13:15;103028.75;;;8.84;100.00
51297;BME280;37380;45.186;9.792;2023-02-13T16:15:44;103044.44;;;8.74;100.00
51297;BME280;37380;45.186;9.792;2023-02-13T16:18:18;102791.25;;;7.26;100.00
51297;BME280;37380;45.186;9.792;2023-02-13T16:20:55;102876.16;;;7.68;100.00
51297;BME280;37380;45.186;9.792;2023-02-13T16:24:03;102738.59;;;6.86;100.00
51297;BME280;37380;45.186;9.792;2023-02-13T16:26:57;102774.03;;;7.06;100.00
51297;BME280;37380;45.186;9.792;2023-02-13T16:29:25;102827.66;;;7.26;100.00
51297;BME280;37380;45.186;9.792;2023-02-13T16:32:05;102896.19;;;7.69;100.00
51297;BME280;37380;45.186;9.792;2023-02-13T16:35:16;103010.00;;;8.24;100.00
51297;BME280;37380;45.186;9.792;2023-02-13T16:37:53;103029.34;;;8.06;100.00
51297;BME280;37380;45.186;9.792;2023-02-13T16:40:40;103046.47;;;8.14;100.00
51297;BME280;37380;45.186;9.792;2023-02-13T16:48:41;102887.50;;;6.85;100.00
51297;BME280;37380;45.186;9.792;2023-02-13T16:51:10;102720.38;;;5.43;100.00
51297;BME280;37380;45.186;9.792;2023-02-13T16:53:43;102724.81;;;5.44;100.00
51297;BME280;37380;45.186;9.792;2023-02-13T16:56:47;103036.97;;;7.11;100.00
51297;BME280;37380;45.186;9.792;2023-02-13T17:05:21;102892.84;;;6.06;100.00
51297;BME280;37380;45.186;9.792;2023-02-13T17:07:51;103056.56;;;6.87;100.00
51297;BME280;37380;45.186;9.792;2023-02-13T17:10:30;103056.13;;;6.43;100.00
51297;BME280;37380;45.186;9.792;2023-02-13T17:13:25;102882.06;;;5.25;100.00
51297;BME280;37380;45.186;9.792;2023-02-13T17:15:59;102661.09;;;4.02;100.00
51297;BME280;37380;45.186;9.792;2023-02-13T17:18:56;103070.41;;;6.19;100.00
51297;BME280;37380;45.186;9.792;2023-02-13T17:21:31;102742.09;;;4.20;100.00
51297;BME280;37380;45.186;9.792;2023-02-13T17:24:31;102886.03;;;4.83;100.00
51297;BME280;37380;45.186;9.792;2023-02-13T17:27:34;103061.09;;;6.02;100.00
51297;BME280;37380;45.186;9.792;2023-02-13T17:30:41;102982.63;;;5.29;100.00
51297;BME280;37380;45.186;9.792;2023-02-13T17:33:42;103057.44;;;5.81;100.00
51297;BME280;37380;45.186;9.792;2023-02-13T17:36:17;102912.84;;;4.84;100.00
51297;BME280;37380;45.186;9.792;2023-02-13T17:38:47;102956.56;;;5.08;100.00
51297;BME280;37380;45.186;9.792;2023-02-13T17:41:15;103079.88;;;5.61;100.00
51297;BME280;37380;45.186;9.792;2023-02-13T17:43:42;102966.16;;;5.09;100.00
51297;BME280;37380;45.186;9.792;2023-02-13T17:46:09;102976.81;;;5.12;100.00
51297;BME280;37380;45.186;9.792;2023-02-13T17:48:37;102857.22;;;4.61;100.00
51297;BME280;37380;45.186;9.792;2023-02-13T17:51:14;102826.03;;;4.32;100.00
51297;BME280;37380;45.186;9.792;2023-02-13T17:54:16;102927.97;;;4.98;100.00
51297;BME280;37380;45.186;9.792;2023-02-13T17:57:18;102993.00;;;5.10;100.00
51297;BME280;37380;45.186;9.792;2023-02-13T18:00:21;102914.38;;;4.54;100.00
51297;BME280;37380;45.186;9.792;2023-02-13T18:03:23;103002.25;;;5.16;100.00
51297;BME280;37380;45.186;9.792;2023-02-13T18:06:18;102783.34;;;3.91;100.00
51297;BME280;37380;45.186;9.792;2023-02-13T18:09:02;102843.41;;;3.97;100.00
51297;BME280;37380;45.186;9.792;2023-02-13T18:15:42;103078.31;;;5.44;100.00
51297;BME280;37380;45.186;9.792;2023-02-13T18:18:11;102935.63;;;4.32;100.00
51297;BME280;37380;45.186;9.792;2023-02-13T18:20:53;102959.09;;;4.62;100.00
51297;BME280;37380;45.186;9.792;2023-02-13T18:23:42;102954.06;;;4.27;100.00
51297;BME280;37380;45.186;9.792;2023-02-13T18:26:15;103068.59;;;5.06;100.00